Time;durP1;ratioP1;P1;durP2;ratioP2;P2;SDS_P1;SDS_P2;PMS_P1;PMS_P2;Temp;Humidity;BMP_temperature;BMP_pressure;BME280_temperature;BME280_humidity;BME280_pressure;Samples;Min_cycle;Max_cycle;Signal;HPM_P1;HPM_P2
2021/08/29 00:02:16;;;;;;;0.03;0.03;;;19.10;78.60;;;;;;5114137;28;20028;-74
2021/08/29 00:04:42;;;;;;;0.10;0.10;;;19.10;78.80;;;;;;5112665;28;20024;-74
2021/08/29 00:07:08;;;;;;;0.00;0.00;;;19.00;79.00;;;;;;5113925;28;20027;-74
2021/08/29 00:09:33;;;;;;;0.08;0.08;;;19.00;79.20;;;;;;5113871;28;20026;-74
2021/08/29 00:11:59;;;;;;;0.10;0.08;;;19.00;79.40;;;;;;5112600;28;20023;-74
2021/08/29 00:14:25;;;;;;;0.00;0.00;;;18.90;79.60;;;;;;5113850;28;20126;-74
2021/08/29 00:16:51;;;;;;;0.00;0.00;;;18.90;79.90;;;;;;5114073;28;20071;-74
2021/08/29 00:19:17;;;;;;;0.10;0.10;;;18.90;80.10;;;;;;5113808;28;20105;-74
2021/08/29 00:21:42;;;;;;;0.10;0.10;;;18.90;80.40;;;;;;5113656;28;20027;-74
2021/08/29 00:24:08;;;;;;;0.10;0.10;;;18.80;80.50;;;;;;5116531;28;20016;-74
2021/08/29 00:26:34;;;;;;;0.10;0.10;;;18.80;80.70;;;;;;5119746;28;20028;-74
2021/08/29 00:28:59;;;;;;;0.10;0.10;;;18.80;80.90;;;;;;5118035;28;20024;-74
2021/08/29 00:31:25;;;;;;;0.05;0.05;;;18.70;81.10;;;;;;5118289;28;20032;-74
2021/08/29 00:33:51;;;;;;;0.00;0.00;;;18.70;81.30;;;;;;5117843;28;20412;-74
2021/08/29 00:36:16;;;;;;;0.03;0.03;;;18.70;81.30;;;;;;5118258;28;20414;-74
2021/08/29 00:38:42;;;;;;;0.10;0.10;;;18.60;81.30;;;;;;5116448;28;20020;-74
2021/08/29 00:41:09;;;;;;;0.10;0.10;;;18.60;81.50;;;;;;5117984;28;20031;-75
2021/08/29 00:43:35;;;;;;;0.00;0.00;;;18.60;81.70;;;;;;5117647;28;20031;-74
2021/08/29 00:46:01;;;;;;;0.10;0.10;;;18.60;81.80;;;;;;5117966;28;20027;-74
2021/08/29 00:48:27;;;;;;;0.10;0.10;;;18.60;81.90;;;;;;5117790;28;20032;-74
2021/08/29 00:50:53;;;;;;;0.00;0.00;;;18.60;82.10;;;;;;5117781;28;20016;-74
2021/08/29 00:53:21;;;;;;;0.00;0.00;;;18.60;82.30;;;;;;5117504;28;20188;-74
2021/08/29 00:55:47;;;;;;;0.00;0.00;;;18.60;82.50;;;;;;5117728;28;20445;-74
2021/08/29 00:58:14;;;;;;;0.00;0.00;;;18.60;82.60;;;;;;5117411;28;20102;-74
2021/08/29 01:00:43;;;;;;;0.05;0.05;;;18.50;82.70;;;;;;5117585;28;20465;-74
2021/08/29 01:03:15;;;;;;;0.10;0.10;;;18.50;83.00;;;;;;5117272;28;20374;-74
2021/08/29 01:05:49;;;;;;;0.10;0.10;;;18.50;83.10;;;;;;5117617;28;20031;-74
2021/08/29 01:08:18;;;;;;;0.10;0.10;;;18.40;83.30;;;;;;5117271;28;20051;-74
2021/08/29 01:11:21;;;;;;;0.00;0.00;;;18.40;83.50;;;;;;5117355;28;20019;-74
2021/08/29 01:13:48;;;;;;;0.10;0.10;;;18.30;83.50;;;;;;5117237;28;20050;-74
2021/08/29 01:16:18;;;;;;;0.10;0.10;;;18.30;83.80;;;;;;5117410;28;20022;-74
2021/08/29 01:18:48;;;;;;;0.10;0.10;;;18.30;84.20;;;;;;5116939;28;20547;-74
2021/08/29 01:21:15;;;;;;;0.10;0.10;;;18.20;84.80;;;;;;5117243;28;20457;-74
2021/08/29 01:23:45;;;;;;;0.10;0.10;;;18.20;84.30;;;;;;5116766;28;20403;-74
2021/08/29 01:26:24;;;;;;;0.08;0.08;;;18.20;84.50;;;;;;5118273;28;20499;-74
2021/08/29 01:28:59;;;;;;;0.10;0.10;;;18.20;84.80;;;;;;5116849;28;20032;-74
2021/08/29 01:31:27;;;;;;;0.00;0.00;;;18.20;85.00;;;;;;5117331;28;20028;-74
2021/08/29 01:33:54;;;;;;;0.10;0.10;;;18.20;85.00;;;;;;5115238;28;20035;-74
2021/08/29 01:36:21;;;;;;;0.10;0.10;;;18.10;85.30;;;;;;5117113;28;20042;-74
2021/08/29 01:38:47;;;;;;;0.10;0.10;;;18.20;85.40;;;;;;5116673;28;20411;-74
2021/08/29 01:41:17;;;;;;;0.00;0.00;;;18.20;85.50;;;;;;5115463;28;20034;-74
2021/08/29 01:43:44;;;;;;;0.10;0.10;;;18.20;85.60;;;;;;5116720;28;20030;-75
2021/08/29 01:46:09;;;;;;;0.08;0.00;;;18.20;85.90;;;;;;5116745;28;20038;-74
2021/08/29 01:48:39;;;;;;;0.08;0.08;;;18.10;86.10;;;;;;5116364;28;20032;-74
2021/08/29 01:51:05;;;;;;;0.10;0.10;;;18.20;86.20;;;;;;5116948;28;20407;-74
2021/08/29 01:53:31;;;;;;;0.00;0.00;;;18.20;86.30;;;;;;5116297;27;20039;-74
2021/08/29 01:55:57;;;;;;;0.10;0.10;;;18.10;86.20;;;;;;5115165;28;20034;-74
2021/08/29 01:58:23;;;;;;;0.00;0.00;;;18.20;86.30;;;;;;5116465;28;20061;-74
2021/08/29 02:00:52;;;;;;;0.10;0.10;;;18.20;86.30;;;;;;5114720;28;20111;-74
2021/08/29 02:03:18;;;;;;;0.10;0.10;;;18.20;86.30;;;;;;5116101;28;20542;-74
2021/08/29 02:05:47;;;;;;;0.00;0.00;;;18.20;86.30;;;;;;5116362;28;20031;-74
2021/08/29 02:08:15;;;;;;;0.10;0.10;;;18.10;86.40;;;;;;5116006;28;20488;-74
2021/08/29 02:10:41;;;;;;;0.10;0.10;;;18.20;86.60;;;;;;5116222;28;20012;-75
2021/08/29 02:13:10;;;;;;;0.10;0.10;;;18.10;86.70;;;;;;5115897;28;20103;-74
2021/08/29 02:15:43;;;;;;;0.10;0.10;;;18.10;86.90;;;;;;5115977;28;20529;-74
2021/08/29 02:18:11;;;;;;;0.00;0.00;;;18.10;86.90;;;;;;5115893;28;20027;-74
2021/08/29 02:20:37;;;;;;;0.08;0.08;;;18.10;87.00;;;;;;5116117;28;20041;-74
2021/08/29 02:23:04;;;;;;;0.05;0.05;;;18.10;87.10;;;;;;5115789;28;20492;-74
2021/08/29 02:25:39;;;;;;;0.00;0.00;;;18.10;87.20;;;;;;5116030;28;20054;-74
2021/08/29 02:28:06;;;;;;;0.10;0.10;;;18.20;87.20;;;;;;5116505;28;20353;-74
2021/08/29 02:30:31;;;;;;;0.00;0.00;;;18.10;87.10;;;;;;5115807;28;20031;-74
2021/08/29 02:32:57;;;;;;;0.00;0.00;;;18.10;87.00;;;;;;5115510;28;20072;-74
2021/08/29 02:35:23;;;;;;;0.10;0.10;;;18.10;87.00;;;;;;5115747;28;20031;-74
2021/08/29 02:37:49;;;;;;;0.10;0.10;;;18.20;87.60;;;;;;5115552;28;20030;-74
2021/08/29 02:40:16;;;;;;;0.00;0.00;;;18.20;87.00;;;;;;5114150;28;20038;-74
2021/08/29 02:42:43;;;;;;;0.00;0.00;;;18.20;86.90;;;;;;5115327;28;20023;-74
2021/08/29 02:45:11;;;;;;;0.10;0.10;;;18.20;87.00;;;;;;5115205;28;20027;-74
2021/08/29 02:47:38;;;;;;;0.10;0.10;;;18.20;86.90;;;;;;5113614;28;20030;-74
2021/08/29 02:50:04;;;;;;;0.00;0.00;;;18.20;87.00;;;;;;5115197;28;20034;-74
2021/08/29 02:52:30;;;;;;;0.10;0.10;;;18.20;87.10;;;;;;5115004;28;20024;-74
2021/08/29 02:54:58;;;;;;;0.00;0.00;;;18.10;87.00;;;;;;5115162;28;20080;-74
2021/08/29 02:57:30;;;;;;;0.00;0.00;;;18.20;87.00;;;;;;5113776;28;20031;-74
2021/08/29 02:59:56;;;;;;;0.00;0.00;;;18.10;87.00;;;;;;5115111;27;20024;-75
2021/08/29 03:02:21;;;;;;;0.00;0.00;;;18.10;87.00;;;;;;5114923;28;20027;-74
2021/08/29 03:04:47;;;;;;;0.00;0.00;;;18.10;86.80;;;;;;5114976;28;20529;-74
2021/08/29 03:07:13;;;;;;;0.05;0.05;;;18.10;86.70;;;;;;5114901;28;20032;-74
2021/08/29 03:09:39;;;;;;;0.10;0.10;;;18.20;86.50;;;;;;5114918;28;20145;-74
2021/08/29 03:12:05;;;;;;;0.00;0.00;;;18.20;86.30;;;;;;5114880;28;20028;-74
2021/08/29 03:14:33;;;;;;;0.10;0.10;;;18.20;86.30;;;;;;5114487;28;20040;-74
2021/08/29 03:16:59;;;;;;;0.05;0.05;;;18.20;86.20;;;;;;5114890;28;20020;-74
2021/08/29 03:19:26;;;;;;;0.00;0.00;;;18.20;86.20;;;;;;5113385;28;20023;-74
2021/08/29 03:21:52;;;;;;;0.10;0.10;;;18.20;86.20;;;;;;5114956;28;20036;-73
2021/08/29 03:24:18;;;;;;;0.10;0.10;;;18.30;86.30;;;;;;5114803;28;20417;-74
2021/08/29 03:26:45;;;;;;;0.00;0.00;;;18.30;86.30;;;;;;5116201;28;20039;-74
2021/08/29 03:29:11;;;;;;;0.00;0.00;;;18.40;86.30;;;;;;5113341;28;20027;-74
2021/08/29 03:31:36;;;;;;;0.05;0.05;;;18.40;86.40;;;;;;5115113;28;20353;-75
2021/08/29 03:34:05;;;;;;;0.05;0.05;;;18.50;86.40;;;;;;5114452;28;20039;-75
2021/08/29 03:36:32;;;;;;;0.00;0.00;;;18.60;86.20;;;;;;5114783;28;20039;-74
2021/08/29 03:39:02;;;;;;;0.00;0.00;;;18.70;86.00;;;;;;5114373;28;20059;-74
2021/08/29 03:41:30;;;;;;;0.10;0.10;;;18.80;85.70;;;;;;5114726;28;20084;-75
2021/08/29 03:43:56;;;;;;;0.10;0.10;;;18.90;85.40;;;;;;5114202;28;20038;-75
2021/08/29 03:46:23;;;;;;;0.00;0.00;;;18.90;84.90;;;;;;5113125;28;20028;-74
2021/08/29 03:48:49;;;;;;;0.00;0.00;;;19.00;84.60;;;;;;5114186;28;20020;-76
2021/08/29 03:51:16;;;;;;;0.00;0.00;;;19.20;84.20;;;;;;5114633;28;20027;-76
2021/08/29 03:53:43;;;;;;;0.00;0.00;;;19.20;83.70;;;;;;5112718;28;20389;-76
2021/08/29 03:56:11;;;;;;;0.00;0.00;;;19.30;83.30;;;;;;5114578;28;20043;-76
2021/08/29 03:58:40;;;;;;;0.00;0.00;;;19.30;82.80;;;;;;5113469;28;20419;-76
2021/08/29 04:01:06;;;;;;;0.00;0.00;;;19.40;82.70;;;;;;5114337;28;20126;-76
2021/08/29 04:03:32;;;;;;;0.10;0.10;;;19.50;82.50;;;;;;5112892;28;20418;-76
2021/08/29 04:06:02;;;;;;;0.00;0.00;;;19.60;82.20;;;;;;5114227;28;20031;-76
2021/08/29 04:08:36;;;;;;;0.00;0.00;;;19.70;82.00;;;;;;5112560;28;20414;-75
2021/08/29 04:11:03;;;;;;;0.00;0.00;;;19.70;81.70;;;;;;5113673;28;20051;-76
2021/08/29 04:13:31;;;;;;;0.10;0.10;;;19.80;81.50;;;;;;5113452;28;20031;-76
2021/08/29 04:15:59;;;;;;;0.10;0.10;;;19.80;81.10;;;;;;5113652;28;20114;-76
2021/08/29 04:18:25;;;;;;;0.10;0.10;;;19.90;80.90;;;;;;5113710;28;20016;-76
2021/08/29 04:20:51;;;;;;;0.00;0.00;;;20.00;80.70;;;;;;5114681;28;20028;-76
2021/08/29 04:23:17;;;;;;;0.00;0.00;;;20.10;80.50;;;;;;5112715;28;20028;-76
2021/08/29 04:25:43;;;;;;;0.03;0.03;;;20.20;80.30;;;;;;5113800;28;20031;-75
2021/08/29 04:28:09;;;;;;;0.00;0.00;;;20.30;79.90;;;;;;5115486;28;20085;-75
2021/08/29 04:30:35;;;;;;;0.05;0.05;;;20.40;79.50;;;;;;5113769;28;20057;-76
2021/08/29 04:33:01;;;;;;;0.00;0.00;;;20.40;79.30;;;;;;5113527;28;20117;-73
2021/08/29 04:35:27;;;;;;;0.00;0.00;;;20.50;78.90;;;;;;5113907;28;20156;-77
2021/08/29 04:37:52;;;;;;;0.00;0.00;;;20.50;78.60;;;;;;5113558;28;20035;-75
2021/08/29 04:40:18;;;;;;;0.00;0.00;;;20.50;78.70;;;;;;5113711;28;20032;-76
2021/08/29 04:42:44;;;;;;;0.00;0.00;;;20.60;78.60;;;;;;5113707;28;20028;-76
2021/08/29 04:45:10;;;;;;;0.00;0.00;;;20.60;78.20;;;;;;5113806;28;20487;-76
2021/08/29 04:47:37;;;;;;;0.00;0.00;;;20.70;78.30;;;;;;5113674;28;20034;-76
2021/08/29 04:50:04;;;;;;;0.00;0.00;;;20.80;78.20;;;;;;5113762;28;20028;-76
2021/08/29 04:52:31;;;;;;;0.00;0.00;;;21.10;78.20;;;;;;5113731;28;20028;-76
2021/08/29 04:54:57;;;;;;;0.00;0.00;;;21.20;77.50;;;;;;5113600;28;20108;-76
2021/08/29 04:57:22;;;;;;;0.00;0.00;;;21.40;77.40;;;;;;5113685;28;20085;-76
2021/08/29 04:59:48;;;;;;;0.00;0.00;;;21.50;77.20;;;;;;5112898;28;20023;-73
2021/08/29 05:02:14;;;;;;;0.00;0.00;;;21.80;77.10;;;;;;5111357;28;20038;-76
2021/08/29 05:04:39;;;;;;;0.00;0.00;;;22.00;76.40;;;;;;5111533;28;20020;-76
2021/08/29 05:07:05;;;;;;;0.00;0.00;;;22.20;75.70;;;;;;5113199;28;20028;-76
2021/08/29 05:09:31;;;;;;;0.00;0.00;;;22.40;75.10;;;;;;5114891;28;20450;-76
2021/08/29 05:11:57;;;;;;;0.00;0.00;;;22.80;74.90;;;;;;5117126;28;20032;-76
2021/08/29 05:14:23;;;;;;;0.00;0.00;;;23.30;74.10;;;;;;5115785;28;20066;-76
2021/08/29 05:16:48;;;;;;;0.00;0.00;;;23.70;73.00;;;;;;5117558;28;20420;-76
2021/08/29 05:19:14;;;;;;;0.00;0.00;;;24.00;72.00;;;;;;5116856;28;20032;-76
2021/08/29 05:21:39;;;;;;;0.00;0.00;;;24.40;70.60;;;;;;5117239;28;20020;-76
2021/08/29 05:24:05;;;;;;;0.00;0.00;;;24.60;69.40;;;;;;5116785;28;20370;-76
2021/08/29 05:26:31;;;;;;;0.00;0.00;;;24.70;68.60;;;;;;5117779;28;20483;-73
2021/08/29 05:28:57;;;;;;;0.00;0.00;;;24.80;67.90;;;;;;5115328;28;20034;-76
2021/08/29 05:31:23;;;;;;;0.00;0.00;;;24.90;68.30;;;;;;5116680;28;20089;-76
2021/08/29 05:33:48;;;;;;;0.00;0.00;;;25.20;67.50;;;;;;5116238;28;20485;-76
2021/08/29 05:36:14;;;;;;;0.00;0.00;;;25.50;67.20;;;;;;5116764;28;20053;-76
2021/08/29 05:38:40;;;;;;;0.00;0.00;;;25.80;67.10;;;;;;5116131;28;20070;-76
2021/08/29 05:41:05;;;;;;;0.00;0.00;;;26.00;66.20;;;;;;5116720;28;20023;-75
2021/08/29 05:43:31;;;;;;;0.00;0.00;;;26.30;65.80;;;;;;5114981;28;20020;-74
2021/08/29 05:45:57;;;;;;;0.00;0.00;;;26.60;64.80;;;;;;5116251;28;20391;-73
2021/08/29 05:48:22;;;;;;;0.00;0.00;;;26.80;64.40;;;;;;5114524;28;20024;-74
2021/08/29 05:50:48;;;;;;;0.00;0.00;;;27.10;64.20;;;;;;5116021;28;20031;-74
2021/08/29 05:53:14;;;;;;;0.00;0.00;;;27.40;63.40;;;;;;5115611;28;20421;-74
2021/08/29 05:55:39;;;;;;;0.00;0.00;;;27.60;62.70;;;;;;5116062;28;20035;-74
2021/08/29 05:58:05;;;;;;;0.00;0.00;;;27.90;62.50;;;;;;5115895;28;20020;-74
2021/08/29 06:00:31;;;;;;;0.00;0.00;;;28.10;61.60;;;;;;5116110;28;20122;-74
2021/08/29 06:02:57;;;;;;;0.00;0.00;;;28.30;61.70;;;;;;5115883;28;20031;-74
2021/08/29 06:05:23;;;;;;;0.00;0.00;;;28.80;61.60;;;;;;5115874;28;20019;-74
2021/08/29 06:07:48;;;;;;;0.00;0.00;;;29.10;60.10;;;;;;5115640;28;20031;-74
2021/08/29 06:10:14;;;;;;;0.00;0.00;;;29.30;59.80;;;;;;5114347;28;20080;-74
2021/08/29 06:12:40;;;;;;;0.00;0.00;;;29.50;59.60;;;;;;5114049;28;20028;-74
2021/08/29 06:15:07;;;;;;;0.00;0.00;;;29.70;59.10;;;;;;5114001;28;20043;-74
2021/08/29 06:17:32;;;;;;;0.00;0.00;;;29.90;58.80;;;;;;5115303;28;20028;-76
2021/08/29 06:19:58;;;;;;;0.00;0.00;;;29.80;57.80;;;;;;5115654;28;20464;-74
2021/08/29 06:22:24;;;;;;;0.00;0.00;;;29.80;58.20;;;;;;5115139;28;20024;-74
2021/08/29 06:24:50;;;;;;;0.00;0.00;;;29.90;57.60;;;;;;5115538;28;20473;-74
2021/08/29 06:27:15;;;;;;;0.00;0.00;;;30.00;57.10;;;;;;5116856;28;20092;-74
2021/08/29 06:29:41;;;;;;;0.00;0.00;;;30.00;57.10;;;;;;5115369;28;20379;-74
2021/08/29 06:32:07;;;;;;;0.00;0.00;;;30.30;57.10;;;;;;5113087;28;20020;-74
2021/08/29 06:34:33;;;;;;;0.00;0.00;;;30.50;56.50;;;;;;5112862;28;20035;-75
2021/08/29 06:36:59;;;;;;;0.00;0.00;;;30.90;56.30;;;;;;5114471;28;20518;-75
2021/08/29 06:39:24;;;;;;;0.00;0.00;;;31.30;56.20;;;;;;5114685;28;20106;-75
2021/08/29 06:41:50;;;;;;;0.00;0.00;;;31.70;55.10;;;;;;5115458;28;20035;-75
2021/08/29 06:44:15;;;;;;;0.00;0.00;;;31.90;54.80;;;;;;5115155;28;20019;-75
2021/08/29 06:46:41;;;;;;;0.05;0.05;;;32.40;54.70;;;;;;5115442;28;20030;-75
2021/08/29 06:49:07;;;;;;;0.00;0.00;;;32.80;54.40;;;;;;5113778;28;20076;-75
2021/08/29 06:51:33;;;;;;;0.00;0.00;;;33.20;53.60;;;;;;5115368;28;20023;-74
2021/08/29 06:53:58;;;;;;;0.00;0.00;;;33.30;53.20;;;;;;5114814;28;20040;-75
2021/08/29 06:56:24;;;;;;;0.00;0.00;;;33.30;52.70;;;;;;5115187;28;20425;-75
2021/08/29 06:58:50;;;;;;;0.00;0.00;;;33.10;52.20;;;;;;5114955;28;20023;-75
2021/08/29 07:01:15;;;;;;;0.10;0.10;;;32.70;52.00;;;;;;5115106;28;20389;-75
2021/08/29 07:03:41;;;;;;;0.00;0.00;;;32.20;52.10;;;;;;5114696;28;20392;-75
2021/08/29 07:06:07;;;;;;;0.00;0.00;;;32.10;52.60;;;;;;5115208;28;20524;-75
2021/08/29 07:08:33;;;;;;;0.00;0.00;;;32.20;52.40;;;;;;5114241;28;20024;-74
2021/08/29 07:10:58;;;;;;;0.00;0.00;;;32.50;52.90;;;;;;5114793;28;20024;-75
2021/08/29 07:13:24;;;;;;;0.00;0.00;;;32.90;52.80;;;;;;5114254;28;20063;-75
2021/08/29 07:15:50;;;;;;;0.10;0.10;;;33.30;52.20;;;;;;5114483;28;20094;-75
2021/08/29 07:18:15;;;;;;;0.00;0.00;;;33.70;52.10;;;;;;5112912;28;20023;-74
2021/08/29 07:20:42;;;;;;;0.00;0.00;;;34.00;51.40;;;;;;5114412;28;20031;-75
2021/08/29 07:23:08;;;;;;;0.00;0.00;;;34.30;50.70;;;;;;5114223;28;20029;-75
2021/08/29 07:25:34;;;;;;;0.00;0.00;;;34.60;50.70;;;;;;5114447;28;20059;-75
2021/08/29 07:28:05;;;;;;;0.00;0.00;;;34.90;50.30;;;;;;5114989;28;20119;-75
2021/08/29 07:30:31;;;;;;;0.10;0.10;;;34.90;49.90;;;;;;5112428;28;20541;-75
2021/08/29 07:32:57;;;;;;;0.00;0.00;;;35.00;49.10;;;;;;5113054;28;20504;-75
2021/08/29 07:35:23;;;;;;;0.00;0.00;;;35.00;49.00;;;;;;5113940;28;20047;-75
2021/08/29 07:37:49;;;;;;;0.00;0.00;;;35.00;49.20;;;;;;5114000;28;20494;-75
2021/08/29 07:40:17;;;;;;;0.00;0.00;;;35.30;49.10;;;;;;5113054;28;20035;-75
2021/08/29 07:42:43;;;;;;;0.05;0.05;;;35.50;48.80;;;;;;5112326;28;20491;-75
2021/08/29 07:45:09;;;;;;;0.05;0.05;;;35.60;48.50;;;;;;5113992;28;20031;-75
2021/08/29 07:47:34;;;;;;;0.00;0.00;;;35.60;48.10;;;;;;5113815;28;20054;-75
2021/08/29 07:50:00;;;;;;;0.00;0.00;;;35.70;48.10;;;;;;5113873;28;20032;-74
2021/08/29 07:52:27;;;;;;;0.00;0.00;;;35.60;47.50;;;;;;5113919;28;20125;-74
2021/08/29 07:54:52;;;;;;;0.00;0.00;;;35.50;47.70;;;;;;5112476;28;20057;-74
2021/08/29 07:57:18;;;;;;;0.03;0.03;;;35.40;47.80;;;;;;5111042;28;20019;-75
2021/08/29 07:59:44;;;;;;;0.00;0.00;;;35.60;48.30;;;;;;5111907;28;20434;-77
2021/08/29 08:02:11;;;;;;;0.00;0.00;;;35.90;48.20;;;;;;5111956;28;20032;-75
2021/08/29 08:04:37;;;;;;;0.00;0.00;;;36.10;47.30;;;;;;5111802;28;20042;-74
2021/08/29 08:07:03;;;;;;;0.10;0.10;;;35.80;46.80;;;;;;5111775;28;20034;-75
2021/08/29 08:09:28;;;;;;;0.00;0.00;;;35.50;46.40;;;;;;5111944;28;20012;-75
2021/08/29 08:11:54;;;;;;;0.00;0.00;;;35.20;47.30;;;;;;5112532;28;20027;-74
2021/08/29 08:14:20;;;;;;;0.10;0.10;;;35.20;47.40;;;;;;5112402;28;20078;-75
2021/08/29 08:16:45;;;;;;;0.00;0.00;;;35.30;47.60;;;;;;5113579;28;20016;-75
2021/08/29 08:19:11;;;;;;;0.00;0.00;;;35.50;47.40;;;;;;5113665;28;20036;-75
2021/08/29 08:21:37;;;;;;;0.00;0.00;;;35.60;47.30;;;;;;5114167;28;20028;-75
2021/08/29 08:24:02;;;;;;;0.10;0.10;;;35.90;47.10;;;;;;5113703;28;20027;-75
2021/08/29 08:26:31;;;;;;;0.10;0.10;;;36.00;46.30;;;;;;5114951;28;20038;-75
2021/08/29 08:28:57;;;;;;;0.10;0.10;;;36.30;46.70;;;;;;5113674;28;20153;-75
2021/08/29 08:31:23;;;;;;;0.00;0.00;;;36.60;45.80;;;;;;5113729;28;20055;-75
2021/08/29 08:33:49;;;;;;;0.00;0.00;;;36.70;45.40;;;;;;5113431;28;20120;-75
2021/08/29 08:36:14;;;;;;;0.08;0.08;;;36.90;45.20;;;;;;5113803;28;20030;-75
2021/08/29 08:38:40;;;;;;;0.10;0.10;;;37.20;45.00;;;;;;5112173;28;20028;-75
2021/08/29 08:41:06;;;;;;;0.10;0.10;;;37.60;44.50;;;;;;5113700;28;20053;-76
2021/08/29 08:43:32;;;;;;;0.10;0.10;;;37.70;43.60;;;;;;5113759;28;20113;-76
2021/08/29 08:45:59;;;;;;;0.10;0.10;;;38.00;43.70;;;;;;5117975;28;20563;-75
2021/08/29 08:48:26;;;;;;;0.10;0.10;;;38.30;43.40;;;;;;5117715;28;20061;-75
2021/08/29 08:50:52;;;;;;;0.10;0.10;;;38.40;42.90;;;;;;5116165;28;20035;-75
2021/08/29 08:53:22;;;;;;;0.00;0.00;;;38.20;42.70;;;;;;5117298;28;20023;-76
2021/08/29 08:55:50;;;;;;;0.10;0.10;;;38.30;42.90;;;;;;5117440;28;20032;-76
2021/08/29 08:58:17;;;;;;;0.10;0.10;;;38.60;42.70;;;;;;5117369;27;20020;-76
2021/08/29 09:00:44;;;;;;;0.10;0.10;;;38.90;42.00;;;;;;5117573;27;20027;-75
2021/08/29 09:03:11;;;;;;;0.10;0.10;;;39.10;42.30;;;;;;5117202;28;20031;-75
2021/08/29 09:05:38;;;;;;;0.10;0.10;;;39.30;42.10;;;;;;5117433;28;20031;-75
2021/08/29 09:08:05;;;;;;;0.10;0.10;;;39.40;41.80;;;;;;5117173;28;20020;-75
2021/08/29 09:10:30;;;;;;;0.10;0.10;;;39.60;41.50;;;;;;5117667;28;20032;-75
2021/08/29 09:13:02;;;;;;;0.10;0.10;;;40.10;41.80;;;;;;5117145;27;20499;-75
2021/08/29 09:15:28;;;;;;;0.10;0.10;;;40.70;41.90;;;;;;5117164;28;20031;-76
2021/08/29 09:17:55;;;;;;;0.10;0.10;;;41.20;40.70;;;;;;5117007;28;20463;-76
2021/08/29 09:20:36;;;;;;;0.10;0.10;;;41.10;40.40;;;;;;5115431;28;20116;-76
2021/08/29 09:23:13;;;;;;;0.10;0.10;;;41.00;40.10;;;;;;5115503;28;20027;-75
2021/08/29 09:25:41;;;;;;;0.10;0.10;;;40.80;39.90;;;;;;5117122;28;20450;-75
2021/08/29 09:28:13;;;;;;;0.10;0.10;;;40.80;40.10;;;;;;5118468;28;20042;-75
2021/08/29 09:30:43;;;;;;;;;;;40.60;40.20;;;;;;5117448;28;20081;-75
2021/08/29 09:33:10;;;;;;;0.10;0.10;;;40.40;40.80;;;;;;5116640;28;19908;-75
2021/08/29 09:35:36;;;;;;;0.10;0.10;;;40.70;41.30;;;;;;5116429;28;20085;-75
2021/08/29 09:38:09;;;;;;;0.10;0.10;;;41.00;40.10;;;;;;5115287;28;20024;-76
2021/08/29 09:40:36;;;;;;;0.10;0.10;;;41.10;40.10;;;;;;5116691;28;20115;-76
2021/08/29 09:43:04;;;;;;;0.10;0.10;;;41.20;40.10;;;;;;5116244;28;20063;-75
2021/08/29 09:45:41;;;;;;;;;;;41.60;39.90;;;;;;5117085;27;20049;-75
2021/08/29 09:48:12;;;;;;;;;;;41.60;39.30;;;;;;5116900;28;19964;-76
2021/08/29 09:50:41;;;;;;;;;;;41.30;39.50;;;;;;5115193;28;20435;-75
2021/08/29 09:53:08;;;;;;;;;;;41.00;39.60;;;;;;5116643;28;20318;-75
2021/08/29 09:55:41;;;;;;;;;;;40.90;40.00;;;;;;5115697;28;19915;-76
2021/08/29 09:58:23;;;;;;;;;;;41.00;40.20;;;;;;5116661;28;20372;-76
2021/08/29 10:01:01;;;;;;;;;;;41.00;40.40;;;;;;5115598;28;19911;-75
2021/08/29 10:03:29;;;;;;;;;;;41.00;40.10;;;;;;5116964;28;20576;-75
2021/08/29 10:06:16;;;;;;;;;;;41.40;40.90;;;;;;5116953;28;19919;-76
2021/08/29 10:08:42;;;;;;;;;;;41.60;39.20;;;;;;5116609;28;19912;-75
2021/08/29 10:11:09;;;;;;;;;;;41.40;39.90;;;;;;5115484;28;19937;-76
2021/08/29 10:13:34;;;;;;;;;;;41.30;40.20;;;;;;5115151;28;19919;-76
2021/08/29 10:16:00;;;;;;;;;;;41.40;39.90;;;;;;5115011;28;20385;-76
2021/08/29 10:18:26;;;;;;;;;;;41.80;39.60;;;;;;5114932;28;19912;-76
2021/08/29 10:20:51;;;;;;;;;;;42.10;38.70;;;;;;5116396;28;19916;-76
2021/08/29 10:23:17;;;;;;;;;;;42.20;39.00;;;;;;5116188;28;20265;-76
2021/08/29 10:25:43;;;;;;;;;;;42.20;38.50;;;;;;5114754;28;19978;-75
2021/08/29 10:28:12;;;;;;;;;;;42.10;37.90;;;;;;5129578;22;20448;-76
2021/08/29 10:30:39;;;;;;;;;;;41.90;37.90;;;;;;5115895;28;20291;-76
2021/08/29 10:33:07;;;;;;;;;;;41.70;38.20;;;;;;5116103;28;19938;-76
2021/08/29 10:35:33;;;;;;;;;;;41.50;37.90;;;;;;5116043;28;19916;-76
2021/08/29 10:37:59;;;;;;;;;;;41.50;38.60;;;;;;5116015;28;20257;-76
2021/08/29 10:40:26;;;;;;;;;;;41.60;38.30;;;;;;5115702;28;20260;-76
2021/08/29 10:42:53;;;;;;;;;;;41.80;38.00;;;;;;5116049;28;19965;-76
2021/08/29 10:45:19;;;;;;;;;;;42.00;37.80;;;;;;5114610;28;20375;-77
2021/08/29 10:47:45;;;;;;;;;;;41.90;37.90;;;;;;5115915;28;19977;-77
2021/08/29 10:50:16;;;;;;;;;;;41.70;38.10;;;;;;5115421;28;19995;-74
2021/08/29 10:52:41;;;;;;;;;;;41.70;37.80;;;;;;5115747;28;19916;-74
2021/08/29 10:55:08;;;;;;;;;;;41.80;37.70;;;;;;5115284;28;19927;-74
2021/08/29 10:57:37;;;;;;;;;;;41.70;37.50;;;;;;5115479;28;19919;-74
2021/08/29 11:00:04;;;;;;;;;;;41.20;37.70;;;;;;5115397;28;19911;-76
2021/08/29 11:02:43;;;;;;;;;;;40.60;37.60;;;;;;5115504;28;20349;-77
2021/08/29 11:05:12;;;;;;;;;;;40.30;37.70;;;;;;5113959;28;20010;-74
2021/08/29 11:07:38;;;;;;;;;;;40.00;38.00;;;;;;5113578;28;19969;-74
2021/08/29 11:10:05;;;;;;;;;;;39.50;38.40;;;;;;5115205;28;20353;-76
2021/08/29 11:12:31;;;;;;;;;;;39.30;39.20;;;;;;5115273;28;19912;-75
2021/08/29 11:14:59;;;;;;;;;;;39.40;39.50;;;;;;5115009;28;19924;-74
2021/08/29 11:17:29;;;;;;;;;;;39.80;39.40;;;;;;5115303;28;19954;-74
2021/08/29 11:20:07;;;;;;;;;;;40.00;39.10;;;;;;5114967;28;19947;-74
2021/08/29 11:22:40;;;;;;;;;;;39.90;38.10;;;;;;5115165;28;19919;-74
2021/08/29 11:25:24;;;;;;;;;;;39.90;37.80;;;;;;5114847;28;19919;-77
2021/08/29 11:27:50;;;;;;;;;;;39.80;38.20;;;;;;5122464;22;19924;-76
2021/08/29 11:30:23;;;;;;;;;;;39.80;38.30;;;;;;5115132;28;19977;-77
2021/08/29 11:32:53;;;;;;;;;;;39.80;38.50;;;;;;5115058;28;19969;-77
2021/08/29 11:35:27;;;;;;;;;;;39.60;38.80;;;;;;5114878;28;19926;-76
2021/08/29 11:38:06;;;;;;;;;;;39.50;39.00;;;;;;5114909;28;19995;-76
2021/08/29 11:40:44;;;;;;;;;;;39.10;39.40;;;;;;5114742;28;20004;-77
2021/08/29 11:43:16;;;;;;;;;;;38.70;39.70;;;;;;5114840;28;20413;-74
2021/08/29 11:45:43;;;;;;;;;;;37.90;40.20;;;;;;5113228;28;19908;-74
2021/08/29 11:48:11;;;;;;;;;;;37.10;40.80;;;;;;5114587;28;20361;-74
2021/08/29 11:50:36;;;;;;;;;;;36.40;41.80;;;;;;5114715;28;19914;-76
2021/08/29 11:53:02;;;;;;;;;;;35.70;43.10;;;;;;5114618;28;20321;-76
2021/08/29 11:55:27;;;;;;;;;;;35.60;43.60;;;;;;5114332;28;20392;-76
2021/08/29 11:57:54;;;;;;;;;;;36.00;43.90;;;;;;5114522;28;20332;-76
2021/08/29 12:00:23;;;;;;;;;;;36.70;43.60;;;;;;5112968;28;19953;-76
2021/08/29 12:02:51;;;;;;;;;;;36.90;42.90;;;;;;5114400;28;19941;-76
2021/08/29 12:05:17;;;;;;;;;;;36.90;43.00;;;;;;5114159;28;20006;-76
2021/08/29 12:07:58;;;;;;;;;;;36.60;43.10;;;;;;5114396;28;20011;-76
2021/08/29 12:10:24;;;;;;;;;;;36.40;43.30;;;;;;5114290;28;19908;-76
2021/08/29 12:12:50;;;;;;;;;;;36.40;43.40;;;;;;5114342;28;20379;-76
2021/08/29 12:15:16;;;;;;;;;;;36.50;43.60;;;;;;5113965;28;19916;-76
2021/08/29 12:17:41;;;;;;;;;;;36.90;43.50;;;;;;5114256;28;19923;-76
2021/08/29 12:20:08;;;;;;;;;;;37.10;43.30;;;;;;5113269;28;19931;-76
2021/08/29 12:22:37;;;;;;;;;;;37.30;43.20;;;;;;5111916;28;20010;-76
2021/08/29 12:25:03;;;;;;;;;;;37.40;43.10;;;;;;5112720;28;20275;-76
2021/08/29 12:27:29;;;;;;;;;;;37.30;43.30;;;;;;5115212;28;19943;-76
2021/08/29 12:29:58;;;;;;;;;;;37.20;43.30;;;;;;5113999;28;20360;-76
2021/08/29 12:32:24;;;;;;;;;;;37.20;43.10;;;;;;5114139;28;19912;-76
2021/08/29 12:34:53;;;;;;;;;;;36.90;43.20;;;;;;5112609;28;19998;-76
2021/08/29 12:37:19;;;;;;;;;;;36.60;43.50;;;;;;5114124;28;20435;-76
2021/08/29 12:39:59;;;;;;;;;;;36.00;44.20;;;;;;5113976;28;20002;-76
2021/08/29 12:42:25;;;;;;;;;;;35.70;44.50;;;;;;5114039;28;19941;-76
2021/08/29 12:44:51;;;;;;;;;;;35.30;44.70;;;;;;5113862;28;19918;-76
2021/08/29 12:47:17;;;;;;;;;;;35.00;45.30;;;;;;5113601;28;19922;-75
2021/08/29 12:49:43;;;;;;;;;;;34.70;45.70;;;;;;5113593;28;19958;-76
2021/08/29 12:52:12;;;;;;;;;;;34.70;46.30;;;;;;5112331;28;19955;-76
2021/08/29 12:54:39;;;;;;;;;;;34.60;46.10;;;;;;5113765;28;19943;-75
2021/08/29 12:57:04;;;;;;;;;;;34.50;46.70;;;;;;5113762;28;19951;-76
2021/08/29 12:59:31;;;;;;;;;;;34.20;46.80;;;;;;5113732;28;20411;-75
2021/08/29 13:02:00;;;;;;;;;;;34.00;46.90;;;;;;5113631;28;19940;-76
2021/08/29 13:04:26;;;;;;;;;;;33.70;47.20;;;;;;5113840;28;19912;-75
2021/08/29 13:07:02;;;;;;;;;;;33.50;47.70;;;;;;5113591;28;19927;-75
2021/08/29 13:09:27;;;;;;;;;;;33.20;48.20;;;;;;5113602;28;20428;-75